createdAt,value
2023-05-14T00:01:53.840Z,86.00
2023-05-14T00:04:20.831Z,85.80
2023-05-14T00:06:47.659Z,85.90
2023-05-14T00:09:14.429Z,85.90
2023-05-14T00:11:41.217Z,86.10
2023-05-14T00:14:08.189Z,86.00
2023-05-14T00:16:35.124Z,86.10
2023-05-14T00:19:02.027Z,86.20
2023-05-14T00:21:28.949Z,86.30
2023-05-14T00:23:55.736Z,86.40
2023-05-14T00:26:22.763Z,86.50
2023-05-14T00:28:49.818Z,86.60
2023-05-14T00:31:16.725Z,86.80
2023-05-14T00:33:43.626Z,87.00
2023-05-14T00:36:10.400Z,87.10
2023-05-14T00:38:37.375Z,87.20
2023-05-14T00:41:04.367Z,87.40
2023-05-14T00:43:33.188Z,87.50
2023-05-14T00:46:00.435Z,87.70
2023-05-14T00:48:27.555Z,87.80
2023-05-14T00:50:54.980Z,88.00
2023-05-14T00:53:22.083Z,88.20
2023-05-14T00:55:50.054Z,88.40
2023-05-14T00:58:18.978Z,88.70
2023-05-14T01:00:45.930Z,89.00
2023-05-14T01:03:13.161Z,89.10
2023-05-14T01:06:03.642Z,89.40
2023-05-14T01:08:52.343Z,89.80
2023-05-14T01:11:29.107Z,90.00
2023-05-14T01:14:16.599Z,90.10
2023-05-14T01:16:45.625Z,90.20
2023-05-14T01:19:33.655Z,90.40
2023-05-14T01:22:00.480Z,90.60
2023-05-14T01:24:27.720Z,90.60
2023-05-14T01:27:01.207Z,90.80
2023-05-14T01:29:31.084Z,91.00
2023-05-14T01:31:59.703Z,91.10
2023-05-14T01:34:28.552Z,91.30
2023-05-14T01:36:56.794Z,91.70
2023-05-14T01:39:25.084Z,91.50
2023-05-14T01:41:53.426Z,91.70
2023-05-14T01:44:21.584Z,91.80
2023-05-14T01:46:48.378Z,91.90
2023-05-14T01:49:16.201Z,92.20
2023-05-14T01:51:43.035Z,92.10
2023-05-14T01:54:09.869Z,92.20
2023-05-14T01:56:36.724Z,92.20
2023-05-14T01:59:03.482Z,92.30
2023-05-14T02:01:30.452Z,92.40
2023-05-14T02:04:01.339Z,92.40
2023-05-14T02:06:28.415Z,92.40
2023-05-14T02:08:55.240Z,92.50
2023-05-14T02:11:22.552Z,92.70
2023-05-14T02:13:49.405Z,92.80
2023-05-14T02:16:16.366Z,92.90
2023-05-14T02:18:43.242Z,93.00
2023-05-14T02:21:10.314Z,93.10
2023-05-14T02:23:41.586Z,93.30
2023-05-14T02:26:10.289Z,93.40
2023-05-14T02:28:37.185Z,93.60
2023-05-14T02:31:04.953Z,94.00
2023-05-14T02:33:31.846Z,93.80
2023-05-14T02:35:59.032Z,94.00
2023-05-14T02:38:26.805Z,94.10
2023-05-14T02:40:53.672Z,94.20
2023-05-14T02:43:20.421Z,94.30
2023-05-14T02:45:47.553Z,94.40
2023-05-14T02:48:14.646Z,94.50
2023-05-14T02:50:41.650Z,94.60
2023-05-14T02:53:08.811Z,94.80
2023-05-14T02:55:36.263Z,94.90
2023-05-14T02:58:03.164Z,95.10
2023-05-14T03:00:30.040Z,95.10
2023-05-14T03:02:57.298Z,95.10
2023-05-14T03:05:24.794Z,95.20
2023-05-14T03:07:53.758Z,95.30
2023-05-14T03:10:21.024Z,95.40
2023-05-14T03:12:48.236Z,95.50
2023-05-14T03:15:15.188Z,95.50
2023-05-14T03:17:42.026Z,95.60
2023-05-14T03:20:09.199Z,95.70
2023-05-14T03:22:36.185Z,95.70
2023-05-14T03:25:02.988Z,95.80
2023-05-14T03:27:29.766Z,95.90
2023-05-14T03:29:56.572Z,96.10
2023-05-14T03:32:23.401Z,96.20
2023-05-14T03:34:50.284Z,96.30
2023-05-14T03:37:17.062Z,96.40
2023-05-14T03:39:43.875Z,96.40
2023-05-14T03:42:10.829Z,96.50
2023-05-14T03:44:37.861Z,96.60
2023-05-14T03:47:04.951Z,96.60
2023-05-14T03:49:32.062Z,96.60
2023-05-14T03:51:59.562Z,96.60
2023-05-14T03:54:27.042Z,96.70
2023-05-14T03:56:53.846Z,96.70
2023-05-14T03:59:20.619Z,96.70
2023-05-14T04:01:47.699Z,96.80
2023-05-14T04:04:14.653Z,96.90
2023-05-14T04:06:41.638Z,97.00
2023-05-14T04:09:08.443Z,97.00
2023-05-14T04:11:35.513Z,97.10
2023-05-14T04:14:04.820Z,97.20
2023-05-14T04:16:31.697Z,97.30
2023-05-14T04:18:58.823Z,97.40
2023-05-14T04:21:25.701Z,97.40
2023-05-14T04:23:52.680Z,97.50
2023-05-14T04:26:19.558Z,97.60
2023-05-14T04:28:46.315Z,97.60
2023-05-14T04:31:13.376Z,97.60
2023-05-14T04:33:40.198Z,97.60
2023-05-14T04:36:07.332Z,97.60
2023-05-14T04:38:34.678Z,97.60
2023-05-14T04:41:02.131Z,97.60
2023-05-14T04:43:29.045Z,97.70
2023-05-14T04:45:56.444Z,97.60
2023-05-14T04:48:23.341Z,97.80
2023-05-14T04:50:50.194Z,97.50
2023-05-14T04:53:17.082Z,97.50
2023-05-14T04:55:43.820Z,97.40
2023-05-14T04:58:10.740Z,97.30
2023-05-14T05:00:37.685Z,97.40
2023-05-14T05:03:04.759Z,97.50
2023-05-14T05:05:31.772Z,97.40
2023-05-14T05:07:58.586Z,97.40
2023-05-14T05:10:25.899Z,97.30
2023-05-14T05:12:53.005Z,97.20
2023-05-14T05:15:19.909Z,97.20
2023-05-14T05:17:47.011Z,97.20
2023-05-14T05:20:13.913Z,97.20
2023-05-14T05:22:48.530Z,97.20
2023-05-14T05:25:15.640Z,97.10
2023-05-14T05:27:42.436Z,97.10
2023-05-14T05:30:09.644Z,97.00
2023-05-14T05:32:36.810Z,96.80
2023-05-14T05:35:03.784Z,96.90
2023-05-14T05:37:31.008Z,96.60
2023-05-14T05:39:57.796Z,96.30
2023-05-14T05:42:24.839Z,96.00
2023-05-14T05:44:51.781Z,95.30
2023-05-14T05:47:18.583Z,94.60
2023-05-14T05:49:45.461Z,94.50
2023-05-14T05:52:12.275Z,94.10
2023-05-14T05:54:39.910Z,93.30
2023-05-14T05:57:06.834Z,92.70
2023-05-14T05:59:33.888Z,92.50
2023-05-14T06:02:03.633Z,92.40
2023-05-14T06:04:30.598Z,91.80
2023-05-14T06:06:57.367Z,91.20
2023-05-14T06:09:24.155Z,90.30
2023-05-14T06:11:51.090Z,89.20
2023-05-14T06:14:18.043Z,87.40
2023-05-14T06:16:45.123Z,85.50
2023-05-14T06:19:12.332Z,84.80
2023-05-14T06:21:39.328Z,84.00
2023-05-14T06:24:06.586Z,83.80
2023-05-14T06:26:33.372Z,84.20
2023-05-14T06:29:00.449Z,85.00
2023-05-14T06:31:27.303Z,86.00
2023-05-14T06:33:54.215Z,86.70
2023-05-14T06:36:21.004Z,87.20
2023-05-14T06:38:47.821Z,86.30
2023-05-14T06:41:14.658Z,86.20
2023-05-14T06:43:41.636Z,86.00
2023-05-14T06:46:08.423Z,86.40
2023-05-14T06:48:35.528Z,86.00
2023-05-14T06:51:03.389Z,84.20
2023-05-14T06:53:30.662Z,83.30
2023-05-14T06:55:57.487Z,82.90
2023-05-14T06:58:24.339Z,83.40
2023-05-14T07:00:51.161Z,83.40
2023-05-14T07:03:18.012Z,83.20
2023-05-14T07:05:46.752Z,83.60
2023-05-14T07:08:13.814Z,84.00
2023-05-14T07:10:40.877Z,84.60
2023-05-14T07:13:08.371Z,84.50
2023-05-14T07:15:35.280Z,84.70
2023-05-14T07:18:02.196Z,84.40
2023-05-14T07:20:29.309Z,83.60
2023-05-14T07:22:56.290Z,83.40
2023-05-14T07:25:23.115Z,83.50
2023-05-14T07:27:49.965Z,82.10
2023-05-14T07:30:16.891Z,79.20
2023-05-14T07:32:43.941Z,78.20
2023-05-14T07:35:11.938Z,78.90
2023-05-14T07:37:39.053Z,78.10
2023-05-14T07:40:06.578Z,75.70
2023-05-14T07:42:36.925Z,72.60
2023-05-14T07:45:05.314Z,70.50
2023-05-14T07:47:32.808Z,70.60
2023-05-14T07:50:02.578Z,70.80
2023-05-14T07:52:29.835Z,69.10
2023-05-14T07:54:56.721Z,66.90
2023-05-14T07:57:23.924Z,65.60
2023-05-14T07:59:51.516Z,65.20
2023-05-14T08:02:18.676Z,64.40
2023-05-14T08:04:45.936Z,63.50
2023-05-14T08:07:12.882Z,61.40
2023-05-14T08:09:40.308Z,60.80
2023-05-14T08:12:07.657Z,60.40
2023-05-14T08:14:34.990Z,60.10
2023-05-14T08:17:02.225Z,59.30
2023-05-14T08:19:29.658Z,58.00
2023-05-14T08:21:56.577Z,56.30
2023-05-14T08:24:23.448Z,56.30
2023-05-14T08:26:50.526Z,55.30
2023-05-14T08:29:17.274Z,53.80
2023-05-14T08:31:44.295Z,53.00
2023-05-14T08:34:11.188Z,53.80
2023-05-14T08:36:39.371Z,51.40
2023-05-14T08:39:07.883Z,50.40
2023-05-14T08:41:35.341Z,49.90
2023-05-14T08:44:28.193Z,49.50
2023-05-14T08:46:55.324Z,47.70
2023-05-14T08:49:32.980Z,48.00
2023-05-14T08:52:00.518Z,48.80
2023-05-14T08:54:29.001Z,49.40
2023-05-14T08:56:59.795Z,49.20
2023-05-14T08:59:26.908Z,49.30
2023-05-14T09:01:55.093Z,49.20
2023-05-14T09:04:23.715Z,49.00
2023-05-14T09:06:53.657Z,48.50
2023-05-14T09:09:23.960Z,48.20
2023-05-14T09:11:52.981Z,47.30
2023-05-14T09:14:20.587Z,46.60
2023-05-14T09:16:49.860Z,46.30
2023-05-14T09:19:19.407Z,45.80
2023-05-14T09:21:48.357Z,45.20
2023-05-14T09:24:52.816Z,44.50
2023-05-14T09:27:20.977Z,44.60
2023-05-14T09:29:48.657Z,44.00
2023-05-14T09:32:15.692Z,43.10
2023-05-14T09:34:42.484Z,43.70
2023-05-14T09:37:09.997Z,41.80
2023-05-14T09:39:38.090Z,41.20
2023-05-14T09:42:05.513Z,40.60
2023-05-14T09:44:36.417Z,40.80
2023-05-14T09:47:05.456Z,40.90
2023-05-14T09:49:32.582Z,40.50
2023-05-14T09:52:00.970Z,40.00
2023-05-14T09:54:28.343Z,39.10
2023-05-14T09:56:55.973Z,39.30
2023-05-14T09:59:22.891Z,38.90
2023-05-14T10:01:51.472Z,38.60
2023-05-14T10:04:19.646Z,38.70
2023-05-14T10:06:51.843Z,38.30
2023-05-14T10:09:28.808Z,37.30
2023-05-14T10:12:01.308Z,38.30
2023-05-14T10:14:36.163Z,37.20
2023-05-14T10:17:05.074Z,37.50
2023-05-14T10:19:35.323Z,37.60
2023-05-14T10:22:10.295Z,38.40
2023-05-14T10:24:39.226Z,37.10
2023-05-14T10:27:09.193Z,37.30
2023-05-14T10:29:38.164Z,36.80
2023-05-14T10:32:09.155Z,37.20
2023-05-14T10:34:52.671Z,37.00
2023-05-14T10:37:23.638Z,36.00
2023-05-14T10:39:58.273Z,36.90
2023-05-14T10:42:37.512Z,35.70
2023-05-14T10:45:07.738Z,35.70
2023-05-14T10:47:45.931Z,35.60
2023-05-14T10:50:15.292Z,36.50
2023-05-14T10:52:44.004Z,35.40
2023-05-14T10:55:14.635Z,34.80
2023-05-14T10:57:44.384Z,34.80
2023-05-14T11:00:13.030Z,35.90
2023-05-14T11:02:42.228Z,35.90
2023-05-14T11:05:16.065Z,34.80
2023-05-14T11:07:48.136Z,34.70
2023-05-14T11:10:19.623Z,34.30
2023-05-14T11:12:51.095Z,34.00
2023-05-14T11:15:20.637Z,34.30
2023-05-14T11:17:49.089Z,35.20
2023-05-14T11:20:18.162Z,34.70
2023-05-14T11:22:46.888Z,34.90
2023-05-14T11:25:14.840Z,35.40
2023-05-14T11:27:44.462Z,35.90
2023-05-14T11:30:20.643Z,35.90
2023-05-14T11:32:49.335Z,35.30
2023-05-14T11:35:17.445Z,36.20
2023-05-14T11:37:50.338Z,35.50
2023-05-14T11:40:18.367Z,36.70
2023-05-14T11:42:45.848Z,37.40
2023-05-14T11:45:14.373Z,36.80
2023-05-14T11:47:42.251Z,37.40
2023-05-14T11:50:09.929Z,37.90
2023-05-14T11:52:41.201Z,37.10
2023-05-14T11:55:12.261Z,37.40
2023-05-14T11:57:39.335Z,37.30
2023-05-14T12:00:16.696Z,37.10
2023-05-14T12:02:43.823Z,37.30
2023-05-14T12:05:13.148Z,36.20
2023-05-14T12:07:40.188Z,36.10
2023-05-14T12:10:07.707Z,36.20
2023-05-14T12:12:38.910Z,36.00
2023-05-14T12:15:17.068Z,36.00
2023-05-14T12:17:50.751Z,36.50
2023-05-14T12:20:17.890Z,36.40
2023-05-14T12:22:44.664Z,36.90
2023-05-14T12:25:16.242Z,36.00
2023-05-14T12:27:45.355Z,35.10
2023-05-14T12:30:21.277Z,35.40
2023-05-14T12:32:52.087Z,37.30
2023-05-14T12:35:19.164Z,36.20
2023-05-14T12:37:46.092Z,36.40
2023-05-14T12:40:13.252Z,36.20
2023-05-14T12:42:40.238Z,36.70
2023-05-14T12:45:08.718Z,36.80
2023-05-14T12:47:37.076Z,36.80
2023-05-14T12:50:05.980Z,36.70
2023-05-14T12:52:38.290Z,36.70
2023-05-14T12:55:09.339Z,36.40
2023-05-14T12:57:38.359Z,36.10
2023-05-14T13:00:09.881Z,37.20
2023-05-14T13:02:43.192Z,37.20
2023-05-14T13:05:11.537Z,36.80
2023-05-14T13:07:38.892Z,37.40
2023-05-14T13:10:06.666Z,37.60
2023-05-14T13:12:33.634Z,37.90
2023-05-14T13:15:00.585Z,37.00
2023-05-14T13:17:27.705Z,36.80
2023-05-14T13:19:54.584Z,37.60
2023-05-14T13:22:21.477Z,37.90
2023-05-14T13:24:48.267Z,38.00
2023-05-14T13:27:15.224Z,38.60
2023-05-14T13:29:42.373Z,38.60
2023-05-14T13:32:09.272Z,38.30
2023-05-14T13:34:36.461Z,38.10
2023-05-14T13:37:04.044Z,39.40
2023-05-14T13:39:31.144Z,39.40
2023-05-14T13:41:58.224Z,39.70
2023-05-14T13:44:25.213Z,40.30
2023-05-14T13:46:52.472Z,40.40
2023-05-14T13:49:19.589Z,41.60
2023-05-14T13:51:46.470Z,42.90
2023-05-14T13:54:13.407Z,42.30
2023-05-14T13:56:40.518Z,43.30
2023-05-14T13:59:07.579Z,43.10
2023-05-14T14:01:34.540Z,43.10
2023-05-14T14:04:01.525Z,44.40
2023-05-14T14:06:30.886Z,43.90
2023-05-14T14:08:58.018Z,44.30
2023-05-14T14:11:31.137Z,44.70
2023-05-14T14:13:58.155Z,44.90
2023-05-14T14:16:26.562Z,44.70
2023-05-14T14:18:53.512Z,45.70
2023-05-14T14:21:21.260Z,45.30
2023-05-14T14:23:49.679Z,45.80
2023-05-14T14:26:16.596Z,46.10
2023-05-14T14:28:48.061Z,45.80
2023-05-14T14:31:16.412Z,45.30
2023-05-14T14:33:46.713Z,46.40
2023-05-14T14:36:13.662Z,46.90
2023-05-14T14:38:42.752Z,46.40
2023-05-14T14:41:10.434Z,48.30
2023-05-14T14:43:38.572Z,47.60
2023-05-14T14:46:06.003Z,47.70
2023-05-14T14:48:37.668Z,48.00
2023-05-14T14:51:06.260Z,47.80
2023-05-14T14:53:34.559Z,49.10
2023-05-14T14:56:02.070Z,48.50
2023-05-14T14:58:31.241Z,47.50
2023-05-14T15:00:58.790Z,46.70
2023-05-14T15:03:26.082Z,47.90
2023-05-14T15:05:53.853Z,46.80
2023-05-14T15:08:24.753Z,46.10
2023-05-14T15:10:51.651Z,45.30
2023-05-14T15:13:19.199Z,46.00
2023-05-14T15:15:46.019Z,45.70
2023-05-14T15:18:13.421Z,45.40
2023-05-14T15:20:40.513Z,45.50
2023-05-14T15:23:07.771Z,45.10
2023-05-14T15:25:40.756Z,45.60
2023-05-14T15:28:07.946Z,46.30
2023-05-14T15:30:35.225Z,45.90
2023-05-14T15:33:02.221Z,44.80
2023-05-14T15:35:29.089Z,45.20
2023-05-14T15:37:59.072Z,46.90
2023-05-14T15:40:27.668Z,46.90
2023-05-14T15:42:54.891Z,46.80
2023-05-14T15:45:22.006Z,48.00
2023-05-14T15:47:48.984Z,47.20
2023-05-14T15:50:16.148Z,48.20
2023-05-14T15:52:44.910Z,48.00
2023-05-14T15:55:12.396Z,48.10
2023-05-14T15:57:39.429Z,49.60
2023-05-14T16:00:13.031Z,49.20
2023-05-14T16:02:40.585Z,49.80
2023-05-14T16:05:08.698Z,50.70
2023-05-14T16:07:36.670Z,51.20
2023-05-14T16:10:04.179Z,51.40
2023-05-14T16:12:31.763Z,51.20
2023-05-14T16:14:58.717Z,51.50
2023-05-14T16:17:26.794Z,51.90
2023-05-14T16:19:56.333Z,52.00
2023-05-14T16:22:23.762Z,51.10
2023-05-14T16:24:50.972Z,50.10
2023-05-14T16:27:19.277Z,49.40
2023-05-14T16:29:46.295Z,49.30
2023-05-14T16:32:13.510Z,49.00
2023-05-14T16:34:40.784Z,49.30
2023-05-14T16:37:08.232Z,49.40
2023-05-14T16:39:36.094Z,49.30
2023-05-14T16:42:11.786Z,50.50
2023-05-14T16:44:39.756Z,50.90
2023-05-14T16:47:07.489Z,51.40
2023-05-14T16:49:34.372Z,52.40
2023-05-14T16:52:01.242Z,52.80
2023-05-14T16:54:28.074Z,53.20
2023-05-14T16:56:54.983Z,53.80
2023-05-14T16:59:23.060Z,54.50
2023-05-14T17:01:51.290Z,55.10
2023-05-14T17:04:21.992Z,56.30
2023-05-14T17:06:49.276Z,57.40
2023-05-14T17:09:19.335Z,58.30
2023-05-14T17:11:46.251Z,59.00
2023-05-14T17:14:13.832Z,59.30
2023-05-14T17:16:43.322Z,60.00
2023-05-14T17:19:19.365Z,60.20
2023-05-14T17:22:02.624Z,60.40
2023-05-14T17:24:29.562Z,60.40
2023-05-14T17:27:00.224Z,60.80
2023-05-14T17:29:27.267Z,61.00
2023-05-14T17:31:58.171Z,61.40
2023-05-14T17:37:22.777Z,62.60
2023-05-14T17:39:57.659Z,62.70
2023-05-14T17:42:24.887Z,63.10
2023-05-14T17:44:54.609Z,63.20
2023-05-14T17:47:23.322Z,63.40
2023-05-14T17:49:53.893Z,63.20
2023-05-14T17:52:21.794Z,63.20
2023-05-14T17:54:50.412Z,63.30
2023-05-14T17:57:19.334Z,63.50
2023-05-14T17:59:59.630Z,63.70
2023-05-14T18:02:34.326Z,64.20
2023-05-14T18:05:03.809Z,64.50
2023-05-14T18:07:35.399Z,65.30
2023-05-14T18:10:06.408Z,65.50
2023-05-14T18:12:36.141Z,65.90
2023-05-14T18:15:03.155Z,66.30
2023-05-14T18:17:30.001Z,66.40
2023-05-14T18:19:57.087Z,66.40
2023-05-14T18:22:26.350Z,66.80
2023-05-14T18:24:55.071Z,66.90
2023-05-14T18:27:23.797Z,67.20
2023-05-14T18:29:57.437Z,67.50
2023-05-14T18:32:45.911Z,67.80
2023-05-14T18:35:16.527Z,68.30
2023-05-14T18:37:44.641Z,68.20
2023-05-14T18:53:59.402Z,70.40
2023-05-14T18:56:29.705Z,70.70
2023-05-14T18:59:00.028Z,71.00
2023-05-14T19:01:34.552Z,71.20
2023-05-14T19:04:05.626Z,71.40
2023-05-14T19:06:33.059Z,71.40
2023-05-14T19:09:00.829Z,71.40
2023-05-14T19:11:27.814Z,71.40
2023-05-14T19:13:54.762Z,71.80
2023-05-14T19:16:21.912Z,72.20
2023-05-14T19:18:49.208Z,72.40
2023-05-14T19:21:16.312Z,72.40
2023-05-14T19:23:43.341Z,72.50
2023-05-14T19:26:10.195Z,72.90
2023-05-14T19:28:42.705Z,73.10
2023-05-14T19:31:09.593Z,73.40
2023-05-14T19:33:39.240Z,73.70
2023-05-14T19:36:06.448Z,73.80
2023-05-14T19:38:49.349Z,73.40
2023-05-14T19:41:16.383Z,73.20
2023-05-14T19:43:43.384Z,73.30
2023-05-14T19:46:13.990Z,73.40
2023-05-14T19:48:48.913Z,73.70
2023-05-14T19:51:15.916Z,74.00
2023-05-14T19:53:42.890Z,74.10
2023-05-14T19:56:09.819Z,74.40
2023-05-14T19:58:36.687Z,75.00
2023-05-14T20:01:07.431Z,75.20
2023-05-14T20:03:34.791Z,75.50
2023-05-14T20:06:02.073Z,75.90
2023-05-14T20:08:29.319Z,76.30
2023-05-14T20:10:56.577Z,76.50
2023-05-14T20:13:25.234Z,76.80
2023-05-14T20:15:52.496Z,77.10
2023-05-14T20:18:19.436Z,77.30
2023-05-14T20:20:46.925Z,77.50
2023-05-14T20:23:13.898Z,77.80
2023-05-14T20:28:26.111Z,78.10
2023-05-14T20:33:30.758Z,78.60
2023-05-14T20:35:57.727Z,79.00
2023-05-14T20:38:25.715Z,79.10
2023-05-14T20:40:52.645Z,79.50
2023-05-14T20:43:19.569Z,79.60
2023-05-14T20:45:46.466Z,79.80
2023-05-14T20:48:16.444Z,79.90
2023-05-14T20:50:44.580Z,80.20
2023-05-14T20:53:11.490Z,80.40
2023-05-14T20:55:39.624Z,80.60
2023-05-14T20:58:06.515Z,80.80
2023-05-14T21:00:33.407Z,80.90
2023-05-14T21:03:00.530Z,81.00
2023-05-14T21:05:27.735Z,81.20
2023-05-14T21:07:54.687Z,81.40
2023-05-14T21:10:21.678Z,81.80
2023-05-14T21:12:48.536Z,82.00
2023-05-14T21:15:16.096Z,82.30
2023-05-14T21:17:42.988Z,82.50
2023-05-14T21:20:12.028Z,82.80
2023-05-14T21:22:39.019Z,83.20
2023-05-14T21:25:06.292Z,83.50
2023-05-14T21:27:33.414Z,83.90
2023-05-14T21:30:00.348Z,84.20
2023-05-14T21:32:27.697Z,84.60
2023-05-14T21:34:54.754Z,85.00
2023-05-14T21:37:22.483Z,85.30
2023-05-14T21:39:49.455Z,85.50
2023-05-14T21:42:16.621Z,85.50
2023-05-14T21:44:43.522Z,85.90
2023-05-14T21:47:13.414Z,86.30
2023-05-14T21:49:40.319Z,86.40
2023-05-14T21:52:07.530Z,86.40
2023-05-14T21:54:34.365Z,86.70
2023-05-14T21:57:01.794Z,87.20
2023-05-14T21:59:28.814Z,87.60
2023-05-14T22:02:06.798Z,87.90
2023-05-14T22:04:35.437Z,88.30
2023-05-14T22:07:03.225Z,88.60
2023-05-14T22:09:30.460Z,88.70
2023-05-14T22:11:58.358Z,88.90
2023-05-14T22:14:27.005Z,89.20
2023-05-14T22:16:54.191Z,89.40
2023-05-14T22:19:21.319Z,89.90
2023-05-14T22:21:48.403Z,90.20
2023-05-14T22:24:17.108Z,90.40
2023-05-14T22:26:44.294Z,90.50
2023-05-14T22:29:11.375Z,90.70
2023-05-14T22:31:38.626Z,90.90
2023-05-14T22:34:05.817Z,91.10
2023-05-14T22:36:32.819Z,91.40
2023-05-14T22:38:59.780Z,91.60
2023-05-14T22:41:29.783Z,91.70
2023-05-14T22:43:56.774Z,91.90
2023-05-14T22:46:23.795Z,92.00
2023-05-14T22:48:50.738Z,92.20
2023-05-14T22:51:18.016Z,92.40
2023-05-14T22:53:45.610Z,92.50
2023-05-14T22:56:12.503Z,92.70
2023-05-14T22:58:39.457Z,92.80
2023-05-14T23:01:06.622Z,92.80
2023-05-14T23:03:33.478Z,92.90
2023-05-14T23:06:00.506Z,93.10
2023-05-14T23:08:27.462Z,93.20
2023-05-14T23:10:54.419Z,93.30
2023-05-14T23:13:21.428Z,93.40
2023-05-14T23:15:48.876Z,93.60
2023-05-14T23:18:16.066Z,93.80
2023-05-14T23:20:43.124Z,93.90
2023-05-14T23:23:10.071Z,94.10
2023-05-14T23:25:37.103Z,94.30
2023-05-14T23:28:04.088Z,94.40
2023-05-14T23:30:30.865Z,94.50
2023-05-14T23:32:57.720Z,94.60
2023-05-14T23:35:25.014Z,94.70
2023-05-14T23:37:52.399Z,94.70
2023-05-14T23:40:19.358Z,94.90
2023-05-14T23:42:46.642Z,95.00
2023-05-14T23:45:14.027Z,95.00
2023-05-14T23:48:00.873Z,95.20
2023-05-14T23:50:27.935Z,95.50
2023-05-14T23:52:55.920Z,95.50
2023-05-14T23:55:23.513Z,95.50
2023-05-14T23:57:50.641Z,95.70
